sensor_id;sensor_type;location;lat;lon;timestamp;pressure;altitude;pressure_sealevel;temperature
20848;BMP180;10584;50.854;12.902;2023-02-28T00:00:05;99225.00;;;-2.30
20848;BMP180;10584;50.854;12.902;2023-02-28T00:05:36;99218.00;;;-2.40
20848;BMP180;10584;50.854;12.902;2023-02-28T00:11:18;99204.00;;;-2.40
20848;BMP180;10584;50.854;12.902;2023-02-28T00:16:51;99217.00;;;-2.40
20848;BMP180;10584;50.854;12.902;2023-02-28T00:22:34;99211.00;;;-2.40
20848;BMP180;10584;50.854;12.902;2023-02-28T00:28:09;99225.00;;;-2.40
20848;BMP180;10584;50.854;12.902;2023-02-28T00:33:46;99206.00;;;-2.40
20848;BMP180;10584;50.854;12.902;2023-02-28T00:39:16;99217.00;;;-2.40
20848;BMP180;10584;50.854;12.902;2023-02-28T00:44:42;99221.00;;;-2.40
20848;BMP180;10584;50.854;12.902;2023-02-28T00:50:05;99205.00;;;-2.40
20848;BMP180;10584;50.854;12.902;2023-02-28T00:55:27;99201.00;;;-2.50
20848;BMP180;10584;50.854;12.902;2023-02-28T01:00:48;99194.00;;;-2.60
20848;BMP180;10584;50.854;12.902;2023-02-28T01:06:16;99200.00;;;-2.50
20848;BMP180;10584;50.854;12.902;2023-02-28T01:12:10;99201.00;;;-2.50
20848;BMP180;10584;50.854;12.902;2023-02-28T01:17:52;99207.00;;;-2.50
20848;BMP180;10584;50.854;12.902;2023-02-28T01:23:27;99202.00;;;-2.60
20848;BMP180;10584;50.854;12.902;2023-02-28T01:28:53;99203.00;;;-2.60
20848;BMP180;10584;50.854;12.902;2023-02-28T01:34:23;99188.00;;;-2.70
20848;BMP180;10584;50.854;12.902;2023-02-28T01:39:45;99193.00;;;-2.70
20848;BMP180;10584;50.854;12.902;2023-02-28T01:45:30;99191.00;;;-2.80
20848;BMP180;10584;50.854;12.902;2023-02-28T01:50:58;99180.00;;;-2.90
20848;BMP180;10584;50.854;12.902;2023-02-28T01:57:05;99177.00;;;-3.10
20848;BMP180;10584;50.854;12.902;2023-02-28T02:02:57;99188.00;;;-3.20
20848;BMP180;10584;50.854;12.902;2023-02-28T02:08:38;99180.00;;;-3.40
20848;BMP180;10584;50.854;12.902;2023-02-28T02:25:53;99174.00;;;-3.80
20848;BMP180;10584;50.854;12.902;2023-02-28T02:49:42;99178.00;;;-4.30
20848;BMP180;10584;50.854;12.902;2023-02-28T02:55:05;99168.00;;;-4.40
20848;BMP180;10584;50.854;12.902;2023-02-28T03:00:33;99171.00;;;-4.40
20848;BMP180;10584;50.854;12.902;2023-02-28T03:06:03;99182.00;;;-4.40
20848;BMP180;10584;50.854;12.902;2023-02-28T03:11:55;99177.00;;;-4.40
20848;BMP180;10584;50.854;12.902;2023-02-28T03:17:51;99184.00;;;-4.30
20848;BMP180;10584;50.854;12.902;2023-02-28T03:29:39;99174.00;;;-4.20
20848;BMP180;10584;50.854;12.902;2023-02-28T03:35:22;99172.00;;;-4.30
20848;BMP180;10584;50.854;12.902;2023-02-28T03:40:48;99179.00;;;-4.20
20848;BMP180;10584;50.854;12.902;2023-02-28T03:46:27;99166.00;;;-4.20
20848;BMP180;10584;50.854;12.902;2023-02-28T03:52:03;99169.00;;;-4.20
20848;BMP180;10584;50.854;12.902;2023-02-28T03:58:35;99169.00;;;-4.10
20848;BMP180;10584;50.854;12.902;2023-02-28T04:04:04;99183.00;;;-4.10
20848;BMP180;10584;50.854;12.902;2023-02-28T04:09:29;99189.00;;;-4.00
20848;BMP180;10584;50.854;12.902;2023-02-28T04:14:50;99169.00;;;-4.00
20848;BMP180;10584;50.854;12.902;2023-02-28T04:20:12;99178.00;;;-3.90
20848;BMP180;10584;50.854;12.902;2023-02-28T04:25:34;99163.00;;;-3.90
20848;BMP180;10584;50.854;12.902;2023-02-28T04:37:11;99186.00;;;-3.80
20848;BMP180;10584;50.854;12.902;2023-02-28T04:42:51;99193.00;;;-3.80
20848;BMP180;10584;50.854;12.902;2023-02-28T04:48:34;99198.00;;;-3.70
20848;BMP180;10584;50.854;12.902;2023-02-28T04:53:57;99200.00;;;-3.60
20848;BMP180;10584;50.854;12.902;2023-02-28T04:59:24;99201.00;;;-3.60
20848;BMP180;10584;50.854;12.902;2023-02-28T05:04:55;99203.00;;;-3.60
20848;BMP180;10584;50.854;12.902;2023-02-28T05:10:33;99204.00;;;-3.60
20848;BMP180;10584;50.854;12.902;2023-02-28T05:16:19;99194.00;;;-3.60
20848;BMP180;10584;50.854;12.902;2023-02-28T05:22:03;99210.00;;;-3.60
20848;BMP180;10584;50.854;12.902;2023-02-28T05:27:38;99199.00;;;-3.60
20848;BMP180;10584;50.854;12.902;2023-02-28T05:33:23;99208.00;;;-3.60
20848;BMP180;10584;50.854;12.902;2023-02-28T05:38:58;99212.00;;;-3.70
20848;BMP180;10584;50.854;12.902;2023-02-28T05:44:25;99212.00;;;-3.70
20848;BMP180;10584;50.854;12.902;2023-02-28T05:49:46;99228.00;;;-3.80
20848;BMP180;10584;50.854;12.902;2023-02-28T05:55:08;99207.00;;;-3.80
20848;BMP180;10584;50.854;12.902;2023-02-28T06:00:30;99220.00;;;-3.90
20848;BMP180;10584;50.854;12.902;2023-02-28T06:06:03;99215.00;;;-4.00
20848;BMP180;10584;50.854;12.902;2023-02-28T06:11:45;99241.00;;;-4.10
20848;BMP180;10584;50.854;12.902;2023-02-28T06:17:25;99242.00;;;-4.10
20848;BMP180;10584;50.854;12.902;2023-02-28T06:23:08;99244.00;;;-4.20
20848;BMP180;10584;50.854;12.902;2023-02-28T06:28:48;99252.00;;;-4.30
20848;BMP180;10584;50.854;12.902;2023-02-28T06:34:17;99250.00;;;-4.40
20848;BMP180;10584;50.854;12.902;2023-02-28T06:39:41;99261.00;;;-4.50
20848;BMP180;10584;50.854;12.902;2023-02-28T06:45:02;99265.00;;;-4.50
20848;BMP180;10584;50.854;12.902;2023-02-28T06:50:30;99281.00;;;-4.50
20848;BMP180;10584;50.854;12.902;2023-02-28T06:55:55;99282.00;;;-4.40
20848;BMP180;10584;50.854;12.902;2023-02-28T07:01:50;99287.00;;;-4.40
20848;BMP180;10584;50.854;12.902;2023-02-28T07:07:26;99290.00;;;-4.20
20848;BMP180;10584;50.854;12.902;2023-02-28T07:12:51;99290.00;;;-3.80
20848;BMP180;10584;50.854;12.902;2023-02-28T07:18:31;99308.00;;;-3.40
20848;BMP180;10584;50.854;12.902;2023-02-28T07:24:08;99298.00;;;-3.10
20848;BMP180;10584;50.854;12.902;2023-02-28T07:29:35;99296.00;;;-2.80
20848;BMP180;10584;50.854;12.902;2023-02-28T07:34:57;99298.00;;;-2.40
20848;BMP180;10584;50.854;12.902;2023-02-28T07:40:19;99297.00;;;-2.20
20848;BMP180;10584;50.854;12.902;2023-02-28T07:45:40;99306.00;;;-1.90
20848;BMP180;10584;50.854;12.902;2023-02-28T07:51:11;99306.00;;;-1.70
20848;BMP180;10584;50.854;12.902;2023-02-28T07:56:56;99305.00;;;-1.50
20848;BMP180;10584;50.854;12.902;2023-02-28T08:02:54;99305.00;;;-1.10
20848;BMP180;10584;50.854;12.902;2023-02-28T08:08:37;99307.00;;;-0.90
20848;BMP180;10584;50.854;12.902;2023-02-28T08:14:18;99295.00;;;-0.70
20848;BMP180;10584;50.854;12.902;2023-02-28T08:19:40;99304.00;;;-0.50
20848;BMP180;10584;50.854;12.902;2023-02-28T08:25:33;99305.00;;;-0.30
20848;BMP180;10584;50.854;12.902;2023-02-28T08:31:01;99309.00;;;-0.20
20848;BMP180;10584;50.854;12.902;2023-02-28T08:36:41;99304.00;;;-0.10
20848;BMP180;10584;50.854;12.902;2023-02-28T08:42:17;99310.00;;;0.10
20848;BMP180;10584;50.854;12.902;2023-02-28T08:47:47;99317.00;;;0.20
20848;BMP180;10584;50.854;12.902;2023-02-28T08:53:28;99325.00;;;0.60
20848;BMP180;10584;50.854;12.902;2023-02-28T08:59:08;99328.00;;;0.80
20848;BMP180;10584;50.854;12.902;2023-02-28T09:04:53;99324.00;;;0.90
20848;BMP180;10584;50.854;12.902;2023-02-28T09:10:22;99313.00;;;1.30
20848;BMP180;10584;50.854;12.902;2023-02-28T09:15:43;99312.00;;;1.30
20848;BMP180;10584;50.854;12.902;2023-02-28T09:21:19;99312.00;;;1.40
20848;BMP180;10584;50.854;12.902;2023-02-28T09:27:04;99306.00;;;1.30
20848;BMP180;10584;50.854;12.902;2023-02-28T09:32:44;99320.00;;;1.30
20848;BMP180;10584;50.854;12.902;2023-02-28T09:38:22;99316.00;;;1.50
20848;BMP180;10584;50.854;12.902;2023-02-28T09:43:59;99311.00;;;1.60
20848;BMP180;10584;50.854;12.902;2023-02-28T09:49:54;99323.00;;;1.80
20848;BMP180;10584;50.854;12.902;2023-02-28T09:55:41;99317.00;;;1.80
20848;BMP180;10584;50.854;12.902;2023-02-28T10:01:44;99310.00;;;1.70
20848;BMP180;10584;50.854;12.902;2023-02-28T10:08:21;99321.00;;;2.00
20848;BMP180;10584;50.854;12.902;2023-02-28T10:19:37;99323.00;;;1.70
20848;BMP180;10584;50.854;12.902;2023-02-28T10:25:01;99320.00;;;1.60
20848;BMP180;10584;50.854;12.902;2023-02-28T10:30:30;99325.00;;;1.40
20848;BMP180;10584;50.854;12.902;2023-02-28T10:35:58;99326.00;;;1.60
20848;BMP180;10584;50.854;12.902;2023-02-28T10:41:52;99315.00;;;1.70
20848;BMP180;10584;50.854;12.902;2023-02-28T10:47:49;99318.00;;;1.30
20848;BMP180;10584;50.854;12.902;2023-02-28T10:53:30;99308.00;;;1.50
20848;BMP180;10584;50.854;12.902;2023-02-28T10:59:30;99313.00;;;1.70
20848;BMP180;10584;50.854;12.902;2023-02-28T11:05:00;99313.00;;;1.60
20848;BMP180;10584;50.854;12.902;2023-02-28T11:10:35;99293.00;;;2.10
20848;BMP180;10584;50.854;12.902;2023-02-28T11:16:18;99290.00;;;2.10
20848;BMP180;10584;50.854;12.902;2023-02-28T11:21:57;99279.00;;;2.00
20848;BMP180;10584;50.854;12.902;2023-02-28T11:33:49;99279.00;;;1.80
20848;BMP180;10584;50.854;12.902;2023-02-28T11:39:13;99277.00;;;1.90
20848;BMP180;10584;50.854;12.902;2023-02-28T11:44:39;99276.00;;;1.80
20848;BMP180;10584;50.854;12.902;2023-02-28T11:50:40;99279.00;;;1.80
20848;BMP180;10584;50.854;12.902;2023-02-28T11:56:23;99277.00;;;2.00
20848;BMP180;10584;50.854;12.902;2023-02-28T12:08:15;99279.00;;;2.20
20848;BMP180;10584;50.854;12.902;2023-02-28T12:19:45;99270.00;;;2.50
20848;BMP180;10584;50.854;12.902;2023-02-28T12:25:20;99268.00;;;2.30
20848;BMP180;10584;50.854;12.902;2023-02-28T12:30:59;99257.00;;;2.80
20848;BMP180;10584;50.854;12.902;2023-02-28T12:36:57;99240.00;;;3.00
20848;BMP180;10584;50.854;12.902;2023-02-28T12:42:46;99252.00;;;2.90
20848;BMP180;10584;50.854;12.902;2023-02-28T12:48:42;99247.00;;;3.00
20848;BMP180;10584;50.854;12.902;2023-02-28T13:00:25;99246.00;;;3.40
20848;BMP180;10584;50.854;12.902;2023-02-28T13:12:20;99253.00;;;3.00
20848;BMP180;10584;50.854;12.902;2023-02-28T13:17:58;99240.00;;;3.30
20848;BMP180;10584;50.854;12.902;2023-02-28T13:40:27;99257.00;;;3.30
20848;BMP180;10584;50.854;12.902;2023-02-28T13:46:22;99254.00;;;3.10
20848;BMP180;10584;50.854;12.902;2023-02-28T13:52:12;99245.00;;;3.30
20848;BMP180;10584;50.854;12.902;2023-02-28T14:03:50;99228.00;;;3.10
20848;BMP180;10584;50.854;12.902;2023-02-28T14:10:05;99233.00;;;3.00
20848;BMP180;10584;50.854;12.902;2023-02-28T14:16:06;99243.00;;;3.10
20848;BMP180;10584;50.854;12.902;2023-02-28T14:22:09;99232.00;;;2.90
20848;BMP180;10584;50.854;12.902;2023-02-28T14:39:26;99209.00;;;3.00
20848;BMP180;10584;50.854;12.902;2023-02-28T14:44:54;99208.00;;;3.10
20848;BMP180;10584;50.854;12.902;2023-02-28T14:50:21;99197.00;;;3.20
20848;BMP180;10584;50.854;12.902;2023-02-28T14:55:45;99213.00;;;3.30
20848;BMP180;10584;50.854;12.902;2023-02-28T15:01:24;99205.00;;;3.10
20848;BMP180;10584;50.854;12.902;2023-02-28T15:07:16;99205.00;;;3.30
20848;BMP180;10584;50.854;12.902;2023-02-28T15:12:54;99198.00;;;3.00
20848;BMP180;10584;50.854;12.902;2023-02-28T15:18:44;99209.00;;;2.90
20848;BMP180;10584;50.854;12.902;2023-02-28T15:24:27;99210.00;;;2.60
20848;BMP180;10584;50.854;12.902;2023-02-28T15:29:58;99213.00;;;2.60
20848;BMP180;10584;50.854;12.902;2023-02-28T15:40:51;99207.00;;;2.20
20848;BMP180;10584;50.854;12.902;2023-02-28T15:46:26;99197.00;;;2.10
20848;BMP180;10584;50.854;12.902;2023-02-28T15:52:04;99215.00;;;2.00
20848;BMP180;10584;50.854;12.902;2023-02-28T15:57:49;99216.00;;;1.80
20848;BMP180;10584;50.854;12.902;2023-02-28T16:03:43;99225.00;;;1.40
20848;BMP180;10584;50.854;12.902;2023-02-28T16:09:26;99219.00;;;1.20
20848;BMP180;10584;50.854;12.902;2023-02-28T16:14:51;99224.00;;;1.30
20848;BMP180;10584;50.854;12.902;2023-02-28T16:20:19;99219.00;;;1.00
20848;BMP180;10584;50.854;12.902;2023-02-28T16:25:43;99230.00;;;1.00
20848;BMP180;10584;50.854;12.902;2023-02-28T16:31:23;99235.00;;;0.70
20848;BMP180;10584;50.854;12.902;2023-02-28T16:37:02;99231.00;;;0.80
20848;BMP180;10584;50.854;12.902;2023-02-28T16:42:34;99226.00;;;0.80
20848;BMP180;10584;50.854;12.902;2023-02-28T16:48:15;99228.00;;;0.50
20848;BMP180;10584;50.854;12.902;2023-02-28T16:53:55;99228.00;;;0.40
20848;BMP180;10584;50.854;12.902;2023-02-28T16:59:24;99238.00;;;0.40
20848;BMP180;10584;50.854;12.902;2023-02-28T17:04:51;99245.00;;;0.30
20848;BMP180;10584;50.854;12.902;2023-02-28T17:10:21;99243.00;;;0.10
20848;BMP180;10584;50.854;12.902;2023-02-28T17:15:54;99258.00;;;0.20
20848;BMP180;10584;50.854;12.902;2023-02-28T17:21:48;99249.00;;;0.00
20848;BMP180;10584;50.854;12.902;2023-02-28T17:27:31;99248.00;;;-0.10
20848;BMP180;10584;50.854;12.902;2023-02-28T17:33:11;99258.00;;;-0.10
20848;BMP180;10584;50.854;12.902;2023-02-28T17:38:43;99253.00;;;-0.10
20848;BMP180;10584;50.854;12.902;2023-02-28T17:44:12;99253.00;;;-0.20
20848;BMP180;10584;50.854;12.902;2023-02-28T17:49:35;99255.00;;;-0.30
20848;BMP180;10584;50.854;12.902;2023-02-28T17:54:58;99253.00;;;-0.40
20848;BMP180;10584;50.854;12.902;2023-02-28T18:00:20;99247.00;;;-0.40
20848;BMP180;10584;50.854;12.902;2023-02-28T18:05:46;99262.00;;;-0.60
20848;BMP180;10584;50.854;12.902;2023-02-28T18:11:28;99243.00;;;-0.70
20848;BMP180;10584;50.854;12.902;2023-02-28T18:17:14;99251.00;;;-0.70
20848;BMP180;10584;50.854;12.902;2023-02-28T18:22:47;99242.00;;;-0.90
20848;BMP180;10584;50.854;12.902;2023-02-28T18:28:39;99231.00;;;-1.00
20848;BMP180;10584;50.854;12.902;2023-02-28T18:34:11;99234.00;;;-1.00
20848;BMP180;10584;50.854;12.902;2023-02-28T18:39:35;99237.00;;;-1.10
20848;BMP180;10584;50.854;12.902;2023-02-28T18:44:57;99240.00;;;-1.20
20848;BMP180;10584;50.854;12.902;2023-02-28T18:50:19;99228.00;;;-1.20
20848;BMP180;10584;50.854;12.902;2023-02-28T18:55:40;99227.00;;;-1.30
20848;BMP180;10584;50.854;12.902;2023-02-28T19:01:03;99234.00;;;-1.40
20848;BMP180;10584;50.854;12.902;2023-02-28T19:06:38;99236.00;;;-1.50
20848;BMP180;10584;50.854;12.902;2023-02-28T19:12:16;99226.00;;;-1.50
20848;BMP180;10584;50.854;12.902;2023-02-28T19:17:56;99233.00;;;-1.60
20848;BMP180;10584;50.854;12.902;2023-02-28T19:23:31;99223.00;;;-1.70
20848;BMP180;10584;50.854;12.902;2023-02-28T19:29:15;99238.00;;;-1.70
20848;BMP180;10584;50.854;12.902;2023-02-28T19:34:38;99251.00;;;-1.80
20848;BMP180;10584;50.854;12.902;2023-02-28T19:40:05;99222.00;;;-1.80
20848;BMP180;10584;50.854;12.902;2023-02-28T19:45:29;99227.00;;;-1.90
20848;BMP180;10584;50.854;12.902;2023-02-28T19:51:07;99232.00;;;-2.00
20848;BMP180;10584;50.854;12.902;2023-02-28T19:57:01;99245.00;;;-2.10
20848;BMP180;10584;50.854;12.902;2023-02-28T20:02:47;99242.00;;;-2.20
20848;BMP180;10584;50.854;12.902;2023-02-28T20:08:32;99229.00;;;-2.30
20848;BMP180;10584;50.854;12.902;2023-02-28T20:14:02;99249.00;;;-2.30
20848;BMP180;10584;50.854;12.902;2023-02-28T20:19:26;99250.00;;;-2.40
20848;BMP180;10584;50.854;12.902;2023-02-28T20:24:48;99238.00;;;-2.40
20848;BMP180;10584;50.854;12.902;2023-02-28T20:30:10;99246.00;;;-2.50
20848;BMP180;10584;50.854;12.902;2023-02-28T20:35:31;99253.00;;;-2.50
20848;BMP180;10584;50.854;12.902;2023-02-28T20:40:58;99254.00;;;-2.60
20848;BMP180;10584;50.854;12.902;2023-02-28T20:46:56;99252.00;;;-2.70
20848;BMP180;10584;50.854;12.902;2023-02-28T20:52:33;99251.00;;;-2.70
20848;BMP180;10584;50.854;12.902;2023-02-28T20:58:15;99257.00;;;-2.80
20848;BMP180;10584;50.854;12.902;2023-02-28T21:09:35;99251.00;;;-2.90
20848;BMP180;10584;50.854;12.902;2023-02-28T21:14:56;99235.00;;;-3.00
20848;BMP180;10584;50.854;12.902;2023-02-28T21:20:18;99249.00;;;-3.00
20848;BMP180;10584;50.854;12.902;2023-02-28T21:25:42;99241.00;;;-3.10
20848;BMP180;10584;50.854;12.902;2023-02-28T21:31:22;99263.00;;;-3.20
20848;BMP180;10584;50.854;12.902;2023-02-28T21:37:10;99241.00;;;-3.30
20848;BMP180;10584;50.854;12.902;2023-02-28T21:42:47;99245.00;;;-3.40
20848;BMP180;10584;50.854;12.902;2023-02-28T21:48:11;99255.00;;;-3.40
20848;BMP180;10584;50.854;12.902;2023-02-28T21:53:47;99261.00;;;-3.60
20848;BMP180;10584;50.854;12.902;2023-02-28T21:59:15;99249.00;;;-3.70
20848;BMP180;10584;50.854;12.902;2023-02-28T22:04:37;99254.00;;;-3.70
20848;BMP180;10584;50.854;12.902;2023-02-28T22:09:59;99254.00;;;-3.80
20848;BMP180;10584;50.854;12.902;2023-02-28T22:15:20;99247.00;;;-3.90
20848;BMP180;10584;50.854;12.902;2023-02-28T22:20:42;99256.00;;;-3.90
20848;BMP180;10584;50.854;12.902;2023-02-28T22:26:20;99260.00;;;-4.00
20848;BMP180;10584;50.854;12.902;2023-02-28T22:31:53;99255.00;;;-4.10
20848;BMP180;10584;50.854;12.902;2023-02-28T22:37:35;99251.00;;;-4.20
20848;BMP180;10584;50.854;12.902;2023-02-28T22:42:58;99251.00;;;-4.30
20848;BMP180;10584;50.854;12.902;2023-02-28T22:48:20;99247.00;;;-4.30
20848;BMP180;10584;50.854;12.902;2023-02-28T22:53:43;99238.00;;;-4.30
20848;BMP180;10584;50.854;12.902;2023-02-28T22:59:05;99244.00;;;-4.40
20848;BMP180;10584;50.854;12.902;2023-02-28T23:04:27;99248.00;;;-4.50
20848;BMP180;10584;50.854;12.902;2023-02-28T23:09:49;99252.00;;;-4.50
20848;BMP180;10584;50.854;12.902;2023-02-28T23:15:11;99259.00;;;-4.60
20848;BMP180;10584;50.854;12.902;2023-02-28T23:20:33;99249.00;;;-4.70
20848;BMP180;10584;50.854;12.902;2023-02-28T23:25:55;99253.00;;;-4.70
20848;BMP180;10584;50.854;12.902;2023-02-28T23:31:16;99245.00;;;-4.80
20848;BMP180;10584;50.854;12.902;2023-02-28T23:36:39;99253.00;;;-4.80
20848;BMP180;10584;50.854;12.902;2023-02-28T23:42:06;99250.00;;;-4.90
20848;BMP180;10584;50.854;12.902;2023-02-28T23:47:28;99246.00;;;-5.00
20848;BMP180;10584;50.854;12.902;2023-02-28T23:52:51;99257.00;;;-5.10
20848;BMP180;10584;50.854;12.902;2023-02-28T23:58:13;99260.00;;;-5.10
